sensor_id;sensor_type;location;lat;lon;timestamp;P1;durP1;ratioP1;P2;durP2;ratioP2
62373;SDS011;48409;49.030;1.820;2022-07-03T09:03:52;2.28;;;0.40;;
62373;SDS011;48409;49.030;1.820;2022-07-03T09:06:21;1.30;;;0.65;;
62373;SDS011;48409;49.030;1.820;2022-07-03T09:08:49;0.80;;;0.50;;
62373;SDS011;48409;49.030;1.820;2022-07-03T09:11:51;2.90;;;0.70;;
62373;SDS011;48409;49.030;1.820;2022-07-03T09:14:25;1.27;;;0.60;;
62373;SDS011;48409;49.030;1.820;2022-07-03T09:16:57;1.15;;;0.52;;
62373;SDS011;48409;49.030;1.820;2022-07-03T09:19:44;1.05;;;0.50;;
62373;SDS011;48409;49.030;1.820;2022-07-03T09:26:01;2.17;;;0.80;;
62373;SDS011;48409;49.030;1.820;2022-07-03T09:31:28;1.58;;;0.70;;
62373;SDS011;48409;49.030;1.820;2022-07-03T09:34:07;2.25;;;0.68;;
62373;SDS011;48409;49.030;1.820;2022-07-03T09:36:49;1.73;;;0.68;;
62373;SDS011;48409;49.030;1.820;2022-07-03T09:39:25;1.50;;;0.70;;
62373;SDS011;48409;49.030;1.820;2022-07-03T09:41:58;2.05;;;0.80;;
62373;SDS011;48409;49.030;1.820;2022-07-03T09:44:35;1.33;;;0.70;;
62373;SDS011;48409;49.030;1.820;2022-07-03T09:47:14;1.33;;;0.65;;
62373;SDS011;48409;49.030;1.820;2022-07-03T10:05:41;2.17;;;0.70;;
62373;SDS011;48409;49.030;1.820;2022-07-03T10:08:11;13.57;;;1.77;;
62373;SDS011;48409;49.030;1.820;2022-07-03T12:50:49;0.68;;;0.22;;
62373;SDS011;48409;49.030;1.820;2022-07-03T15:56:31;1.20;;;0.30;;
62373;SDS011;48409;49.030;1.820;2022-07-03T15:59:03;1.40;;;0.40;;
62373;SDS011;48409;49.030;1.820;2022-07-03T16:01:33;5.93;;;0.40;;
62373;SDS011;48409;49.030;1.820;2022-07-03T16:04:29;2.75;;;0.47;;
62373;SDS011;48409;49.030;1.820;2022-07-03T16:07:03;0.32;;;0.30;;
62373;SDS011;48409;49.030;1.820;2022-07-03T16:40:52;0.63;;;0.28;;
62373;SDS011;48409;49.030;1.820;2022-07-03T18:09:16;0.95;;;0.55;;
62373;SDS011;48409;49.030;1.820;2022-07-03T18:11:57;3.10;;;0.63;;
62373;SDS011;48409;49.030;1.820;2022-07-03T18:14:26;4.38;;;0.70;;
62373;SDS011;48409;49.030;1.820;2022-07-03T18:17:08;3.35;;;0.88;;
62373;SDS011;48409;49.030;1.820;2022-07-03T18:19:35;2.67;;;0.60;;
62373;SDS011;48409;49.030;1.820;2022-07-03T18:22:01;0.98;;;0.50;;
62373;SDS011;48409;49.030;1.820;2022-07-03T18:24:30;1.95;;;0.68;;
62373;SDS011;48409;49.030;1.820;2022-07-03T18:27:03;1.10;;;0.57;;
62373;SDS011;48409;49.030;1.820;2022-07-03T18:29:31;1.10;;;0.60;;
62373;SDS011;48409;49.030;1.820;2022-07-03T18:31:58;1.20;;;0.68;;
62373;SDS011;48409;49.030;1.820;2022-07-03T18:34:24;1.83;;;1.00;;
62373;SDS011;48409;49.030;1.820;2022-07-03T18:36:50;13.75;;;6.13;;
62373;SDS011;48409;49.030;1.820;2022-07-03T18:39:17;13.45;;;5.55;;
62373;SDS011;48409;49.030;1.820;2022-07-03T18:41:44;12.07;;;5.63;;
62373;SDS011;48409;49.030;1.820;2022-07-03T18:44:13;10.43;;;5.20;;
62373;SDS011;48409;49.030;1.820;2022-07-03T18:46:39;9.85;;;5.47;;
62373;SDS011;48409;49.030;1.820;2022-07-03T18:49:05;2.45;;;0.95;;
62373;SDS011;48409;49.030;1.820;2022-07-03T18:54:24;4.40;;;1.85;;
62373;SDS011;48409;49.030;1.820;2022-07-03T18:59:27;4.20;;;1.60;;
62373;SDS011;48409;49.030;1.820;2022-07-03T19:01:54;1.42;;;0.90;;
62373;SDS011;48409;49.030;1.820;2022-07-03T19:04:27;1.33;;;0.90;;
62373;SDS011;48409;49.030;1.820;2022-07-03T19:07:00;2.67;;;0.82;;
62373;SDS011;48409;49.030;1.820;2022-07-03T19:09:40;2.15;;;1.10;;
62373;SDS011;48409;49.030;1.820;2022-07-03T19:12:12;3.20;;;1.00;;
62373;SDS011;48409;49.030;1.820;2022-07-03T19:14:42;3.08;;;0.82;;
62373;SDS011;48409;49.030;1.820;2022-07-03T19:17:10;1.08;;;0.60;;
62373;SDS011;48409;49.030;1.820;2022-07-03T19:19:37;1.00;;;0.57;;
62373;SDS011;48409;49.030;1.820;2022-07-03T19:22:03;2.92;;;0.60;;
62373;SDS011;48409;49.030;1.820;2022-07-03T19:24:30;2.25;;;0.57;;
62373;SDS011;48409;49.030;1.820;2022-07-03T19:26:55;1.92;;;0.52;;
62373;SDS011;48409;49.030;1.820;2022-07-03T19:29:21;1.67;;;0.60;;
62373;SDS011;48409;49.030;1.820;2022-07-03T19:31:47;1.17;;;0.60;;
62373;SDS011;48409;49.030;1.820;2022-07-03T19:34:18;1.50;;;0.60;;
62373;SDS011;48409;49.030;1.820;2022-07-03T19:37:01;1.20;;;0.60;;
62373;SDS011;48409;49.030;1.820;2022-07-03T19:39:28;1.20;;;0.60;;
62373;SDS011;48409;49.030;1.820;2022-07-03T19:41:54;2.63;;;0.60;;
62373;SDS011;48409;49.030;1.820;2022-07-03T19:44:19;1.35;;;0.77;;
62373;SDS011;48409;49.030;1.820;2022-07-03T19:46:45;2.25;;;0.60;;
62373;SDS011;48409;49.030;1.820;2022-07-03T19:49:11;1.15;;;0.70;;
62373;SDS011;48409;49.030;1.820;2022-07-03T19:51:38;0.43;;;0.40;;
62373;SDS011;48409;49.030;1.820;2022-07-03T19:54:04;3.05;;;0.80;;
62373;SDS011;48409;49.030;1.820;2022-07-03T19:56:30;1.33;;;0.50;;
62373;SDS011;48409;49.030;1.820;2022-07-03T19:58:56;2.47;;;0.70;;
62373;SDS011;48409;49.030;1.820;2022-07-03T20:01:21;1.05;;;0.52;;
62373;SDS011;48409;49.030;1.820;2022-07-03T20:03:47;0.90;;;0.60;;
62373;SDS011;48409;49.030;1.820;2022-07-03T20:06:12;1.65;;;0.70;;
62373;SDS011;48409;49.030;1.820;2022-07-03T20:08:37;0.88;;;0.52;;
62373;SDS011;48409;49.030;1.820;2022-07-03T20:11:03;5.18;;;0.90;;
62373;SDS011;48409;49.030;1.820;2022-07-03T20:13:29;2.38;;;0.65;;
62373;SDS011;48409;49.030;1.820;2022-07-03T20:15:54;1.42;;;0.70;;
62373;SDS011;48409;49.030;1.820;2022-07-03T20:18:20;2.03;;;0.70;;
62373;SDS011;48409;49.030;1.820;2022-07-03T20:20:45;2.38;;;0.85;;
62373;SDS011;48409;49.030;1.820;2022-07-03T20:34:47;0.93;;;0.50;;
62373;SDS011;48409;49.030;1.820;2022-07-03T20:37:13;1.90;;;0.55;;
62373;SDS011;48409;49.030;1.820;2022-07-03T20:39:40;1.50;;;0.77;;
62373;SDS011;48409;49.030;1.820;2022-07-03T20:42:08;1.02;;;0.70;;
62373;SDS011;48409;49.030;1.820;2022-07-03T20:44:35;1.65;;;0.75;;
62373;SDS011;48409;49.030;1.820;2022-07-03T20:47:01;1.67;;;0.80;;
62373;SDS011;48409;49.030;1.820;2022-07-03T20:49:30;1.20;;;0.70;;
62373;SDS011;48409;49.030;1.820;2022-07-03T20:51:56;1.25;;;0.80;;
62373;SDS011;48409;49.030;1.820;2022-07-03T20:54:22;1.33;;;0.60;;
62373;SDS011;48409;49.030;1.820;2022-07-03T20:56:49;1.30;;;0.70;;
62373;SDS011;48409;49.030;1.820;2022-07-03T20:59:14;1.10;;;0.60;;
62373;SDS011;48409;49.030;1.820;2022-07-03T21:01:40;3.28;;;0.95;;
62373;SDS011;48409;49.030;1.820;2022-07-03T21:04:06;1.15;;;0.70;;
62373;SDS011;48409;49.030;1.820;2022-07-03T21:06:33;2.90;;;0.70;;
62373;SDS011;48409;49.030;1.820;2022-07-03T21:09:01;2.45;;;0.80;;
62373;SDS011;48409;49.030;1.820;2022-07-03T21:11:30;1.95;;;0.90;;
62373;SDS011;48409;49.030;1.820;2022-07-03T21:14:05;2.47;;;1.25;;
62373;SDS011;48409;49.030;1.820;2022-07-03T21:16:38;1.80;;;1.10;;
62373;SDS011;48409;49.030;1.820;2022-07-03T21:19:08;5.50;;;1.15;;
62373;SDS011;48409;49.030;1.820;2022-07-03T21:21:36;5.80;;;1.10;;
62373;SDS011;48409;49.030;1.820;2022-07-03T21:24:02;3.50;;;1.10;;
62373;SDS011;48409;49.030;1.820;2022-07-03T21:26:29;6.38;;;1.60;;
62373;SDS011;48409;49.030;1.820;2022-07-03T21:28:56;5.68;;;1.70;;
62373;SDS011;48409;49.030;1.820;2022-07-03T21:31:22;2.92;;;1.30;;
62373;SDS011;48409;49.030;1.820;2022-07-03T21:33:49;2.95;;;1.17;;
62373;SDS011;48409;49.030;1.820;2022-07-03T21:36:14;4.22;;;1.15;;
62373;SDS011;48409;49.030;1.820;2022-07-03T21:38:40;2.20;;;1.05;;
62373;SDS011;48409;49.030;1.820;2022-07-03T21:41:06;1.92;;;1.20;;
62373;SDS011;48409;49.030;1.820;2022-07-03T21:43:31;4.85;;;1.33;;
62373;SDS011;48409;49.030;1.820;2022-07-03T21:45:57;5.05;;;1.55;;
62373;SDS011;48409;49.030;1.820;2022-07-03T21:48:22;4.88;;;1.35;;
62373;SDS011;48409;49.030;1.820;2022-07-03T21:50:48;3.00;;;1.23;;
62373;SDS011;48409;49.030;1.820;2022-07-03T21:53:14;4.28;;;1.67;;
62373;SDS011;48409;49.030;1.820;2022-07-03T21:55:40;2.08;;;0.90;;
62373;SDS011;48409;49.030;1.820;2022-07-03T21:58:05;4.10;;;1.48;;
62373;SDS011;48409;49.030;1.820;2022-07-03T22:00:31;4.35;;;1.33;;
62373;SDS011;48409;49.030;1.820;2022-07-03T22:02:57;6.95;;;1.33;;
62373;SDS011;48409;49.030;1.820;2022-07-03T22:05:22;2.15;;;1.10;;
62373;SDS011;48409;49.030;1.820;2022-07-03T22:07:48;0.70;;;0.52;;
62373;SDS011;48409;49.030;1.820;2022-07-03T22:10:14;3.65;;;0.80;;
62373;SDS011;48409;49.030;1.820;2022-07-03T22:12:39;4.20;;;1.08;;
62373;SDS011;48409;49.030;1.820;2022-07-03T22:15:09;3.88;;;1.00;;
62373;SDS011;48409;49.030;1.820;2022-07-03T22:17:37;1.75;;;0.95;;
62373;SDS011;48409;49.030;1.820;2022-07-03T22:20:05;2.33;;;0.90;;
62373;SDS011;48409;49.030;1.820;2022-07-03T22:22:31;1.35;;;0.88;;
62373;SDS011;48409;49.030;1.820;2022-07-03T22:24:57;3.28;;;1.15;;
62373;SDS011;48409;49.030;1.820;2022-07-03T22:27:23;3.67;;;0.90;;
62373;SDS011;48409;49.030;1.820;2022-07-03T22:29:48;1.85;;;0.80;;
62373;SDS011;48409;49.030;1.820;2022-07-03T22:32:14;4.38;;;1.35;;
62373;SDS011;48409;49.030;1.820;2022-07-03T22:34:40;3.40;;;1.05;;
62373;SDS011;48409;49.030;1.820;2022-07-03T22:37:07;2.20;;;0.93;;
62373;SDS011;48409;49.030;1.820;2022-07-03T22:39:32;1.02;;;0.63;;
62373;SDS011;48409;49.030;1.820;2022-07-03T22:41:58;1.13;;;0.70;;
62373;SDS011;48409;49.030;1.820;2022-07-03T22:44:24;1.48;;;0.60;;
62373;SDS011;48409;49.030;1.820;2022-07-03T22:46:50;1.92;;;1.10;;
62373;SDS011;48409;49.030;1.820;2022-07-03T22:49:15;4.18;;;1.05;;
62373;SDS011;48409;49.030;1.820;2022-07-03T22:51:42;2.55;;;0.90;;
62373;SDS011;48409;49.030;1.820;2022-07-03T22:54:07;1.83;;;0.90;;
62373;SDS011;48409;49.030;1.820;2022-07-03T22:56:33;4.97;;;1.20;;
62373;SDS011;48409;49.030;1.820;2022-07-03T22:59:01;1.95;;;1.00;;
62373;SDS011;48409;49.030;1.820;2022-07-03T23:01:27;2.05;;;0.77;;
62373;SDS011;48409;49.030;1.820;2022-07-03T23:03:54;2.13;;;0.68;;
62373;SDS011;48409;49.030;1.820;2022-07-03T23:06:19;1.63;;;0.93;;
62373;SDS011;48409;49.030;1.820;2022-07-03T23:08:45;1.27;;;0.70;;
62373;SDS011;48409;49.030;1.820;2022-07-03T23:11:10;2.58;;;0.90;;
62373;SDS011;48409;49.030;1.820;2022-07-03T23:13:36;0.77;;;0.60;;
62373;SDS011;48409;49.030;1.820;2022-07-03T23:16:01;1.58;;;0.85;;
62373;SDS011;48409;49.030;1.820;2022-07-03T23:18:27;2.20;;;0.85;;
62373;SDS011;48409;49.030;1.820;2022-07-03T23:20:52;1.10;;;0.80;;
62373;SDS011;48409;49.030;1.820;2022-07-03T23:23:17;2.25;;;0.90;;
62373;SDS011;48409;49.030;1.820;2022-07-03T23:25:43;1.02;;;0.50;;
62373;SDS011;48409;49.030;1.820;2022-07-03T23:28:08;1.70;;;0.60;;
62373;SDS011;48409;49.030;1.820;2022-07-03T23:30:34;1.45;;;0.77;;
62373;SDS011;48409;49.030;1.820;2022-07-03T23:32:59;0.60;;;0.60;;
62373;SDS011;48409;49.030;1.820;2022-07-03T23:35:25;2.47;;;0.80;;
62373;SDS011;48409;49.030;1.820;2022-07-03T23:37:50;2.08;;;0.75;;
62373;SDS011;48409;49.030;1.820;2022-07-03T23:40:16;1.30;;;0.65;;
62373;SDS011;48409;49.030;1.820;2022-07-03T23:42:41;1.42;;;0.73;;
62373;SDS011;48409;49.030;1.820;2022-07-03T23:45:07;1.13;;;0.70;;
62373;SDS011;48409;49.030;1.820;2022-07-03T23:47:33;1.15;;;0.70;;
62373;SDS011;48409;49.030;1.820;2022-07-03T23:49:58;1.60;;;0.70;;
62373;SDS011;48409;49.030;1.820;2022-07-03T23:52:42;0.70;;;0.50;;
62373;SDS011;48409;49.030;1.820;2022-07-03T23:55:08;1.08;;;0.60;;
62373;SDS011;48409;49.030;1.820;2022-07-03T23:57:35;1.45;;;0.70;;
